sensor_id;sensor_type;location;lat;lon;timestamp;pressure;altitude;pressure_sealevel;temperature;humidity
53699;BME280;39591;53.952;27.612;2022-10-16T00:03:56;1017.3;;;12.1;54.5
53699;BME280;39591;53.952;27.612;2022-10-16T00:08:37;1017.3;;;12.1;54.6
53699;BME280;39591;53.952;27.612;2022-10-16T00:14:19;1017.3;;;12.1;54.5
53699;BME280;39591;53.952;27.612;2022-10-16T00:19:19;1017.3;;;12.1;54.4
53699;BME280;39591;53.952;27.612;2022-10-16T00:24:02;1017.3;;;12.1;54.4
53699;BME280;39591;53.952;27.612;2022-10-16T00:29:20;1017.2;;;12.2;54.2
53699;BME280;39591;53.952;27.612;2022-10-16T00:34:13;1017.3;;;12.2;54.2
53699;BME280;39591;53.952;27.612;2022-10-16T00:39:05;1017.3;;;12.2;54.1
53699;BME280;39591;53.952;27.612;2022-10-16T00:43:56;1017.3;;;12.2;54.1
53699;BME280;39591;53.952;27.612;2022-10-16T00:49:00;1017.3;;;12.2;54.1
53699;BME280;39591;53.952;27.612;2022-10-16T00:53:37;1017.2;;;12.2;54.1
53699;BME280;39591;53.952;27.612;2022-10-16T00:58:49;1017.2;;;12.2;54
53699;BME280;39591;53.952;27.612;2022-10-16T01:03:45;1017.2;;;12.2;54
53699;BME280;39591;53.952;27.612;2022-10-16T01:09:19;1017.2;;;12.2;54
53699;BME280;39591;53.952;27.612;2022-10-16T01:14:09;1017.3;;;12.2;54
53699;BME280;39591;53.952;27.612;2022-10-16T01:19:01;1017.3;;;12.1;54.1
53699;BME280;39591;53.952;27.612;2022-10-16T01:24:03;1017.3;;;12.1;54
53699;BME280;39591;53.952;27.612;2022-10-16T01:29:01;1017.3;;;12.1;54.1
53699;BME280;39591;53.952;27.612;2022-10-16T01:33:38;1017.4;;;12;54.2
53699;BME280;39591;53.952;27.612;2022-10-16T01:38:49;1017.4;;;11.9;54.4
53699;BME280;39591;53.952;27.612;2022-10-16T01:43:48;1017.5;;;11.8;54.6
53699;BME280;39591;53.952;27.612;2022-10-16T01:48:51;1017.5;;;11.7;54.8
53699;BME280;39591;53.952;27.612;2022-10-16T01:54:09;1017.5;;;11.7;54.9
53699;BME280;39591;53.952;27.612;2022-10-16T01:59:00;1017.5;;;11.6;55.1
53699;BME280;39591;53.952;27.612;2022-10-16T02:04:15;1017.5;;;11.6;55.2
53699;BME280;39591;53.952;27.612;2022-10-16T02:09:05;1017.6;;;11.5;55.4
53699;BME280;39591;53.952;27.612;2022-10-16T02:13:58;1017.7;;;11.5;55.4
53699;BME280;39591;53.952;27.612;2022-10-16T02:19:07;1017.7;;;11.6;55.4
53699;BME280;39591;53.952;27.612;2022-10-16T02:24:18;1017.7;;;11.6;55.4
53699;BME280;39591;53.952;27.612;2022-10-16T02:28:38;1017.7;;;11.6;55.4
53699;BME280;39591;53.952;27.612;2022-10-16T02:33:49;1017.7;;;11.5;55.5
53699;BME280;39591;53.952;27.612;2022-10-16T02:38:47;1017.8;;;11.4;55.7
53699;BME280;39591;53.952;27.612;2022-10-16T02:44:17;1017.8;;;11.4;55.8
53699;BME280;39591;53.952;27.612;2022-10-16T02:49:13;1017.8;;;11.3;56.1
53699;BME280;39591;53.952;27.612;2022-10-16T02:54:21;1017.8;;;11.2;56.2
53699;BME280;39591;53.952;27.612;2022-10-16T02:58:59;1017.9;;;11.1;56.4
53699;BME280;39591;53.952;27.612;2022-10-16T03:04:13;1017.9;;;11.1;56.5
53699;BME280;39591;53.952;27.612;2022-10-16T03:09:23;1018;;;11.1;56.5
53699;BME280;39591;53.952;27.612;2022-10-16T03:13:59;1018;;;11;56.7
53699;BME280;39591;53.952;27.612;2022-10-16T03:18:37;1018;;;11;56.7
53699;BME280;39591;53.952;27.612;2022-10-16T03:23:49;1017.9;;;11;56.7
53699;BME280;39591;53.952;27.612;2022-10-16T03:29:02;1018;;;10.9;56.8
53699;BME280;39591;53.952;27.612;2022-10-16T03:34:01;1018;;;10.9;56.9
53699;BME280;39591;53.952;27.612;2022-10-16T03:38:59;1018;;;10.8;57
53699;BME280;39591;53.952;27.612;2022-10-16T03:44:23;1018.1;;;10.7;57.2
53699;BME280;39591;53.952;27.612;2022-10-16T03:49:23;1018.2;;;10.6;57.3
53699;BME280;39591;53.952;27.612;2022-10-16T03:53:37;1018.2;;;10.6;57.4
53699;BME280;39591;53.952;27.612;2022-10-16T03:59:25;1018.2;;;10.5;57.6
53699;BME280;39591;53.952;27.612;2022-10-16T04:04:23;1018.2;;;10.5;57.6
53699;BME280;39591;53.952;27.612;2022-10-16T04:09:21;1018.2;;;10.4;57.8
53699;BME280;39591;53.952;27.612;2022-10-16T04:13:37;1018.3;;;10.3;57.9
53699;BME280;39591;53.952;27.612;2022-10-16T04:18:37;1018.4;;;10.3;58.1
53699;BME280;39591;53.952;27.612;2022-10-16T04:24:25;1018.4;;;10.2;58.2
53699;BME280;39591;53.952;27.612;2022-10-16T04:29:14;1018.4;;;10.2;58.4
53699;BME280;39591;53.952;27.612;2022-10-16T04:34:03;1018.4;;;10.1;58.5
53699;BME280;39591;53.952;27.612;2022-10-16T04:39:16;1018.5;;;10;58.6
53699;BME280;39591;53.952;27.612;2022-10-16T04:44:11;1018.4;;;10;58.7
53699;BME280;39591;53.952;27.612;2022-10-16T04:49:01;1018.3;;;9.9;59
53699;BME280;39591;53.952;27.612;2022-10-16T04:54:11;1018.2;;;9.9;59
53699;BME280;39591;53.952;27.612;2022-10-16T04:59:25;1018.1;;;9.9;59.1
53699;BME280;39591;53.952;27.612;2022-10-16T05:03:37;1018.1;;;9.8;59.2
53699;BME280;39591;53.952;27.612;2022-10-16T05:09:02;1018.1;;;9.8;59.2
53699;BME280;39591;53.952;27.612;2022-10-16T05:14:25;1018.1;;;9.7;59.3
53699;BME280;39591;53.952;27.612;2022-10-16T05:19:15;1018.2;;;9.7;59.3
53699;BME280;39591;53.952;27.612;2022-10-16T05:24:25;1018.3;;;9.7;59.3
53699;BME280;39591;53.952;27.612;2022-10-16T05:29:01;1018.3;;;9.7;59.2
53699;BME280;39591;53.952;27.612;2022-10-16T05:34:15;1018.3;;;9.7;59.1
53699;BME280;39591;53.952;27.612;2022-10-16T05:39:25;1018.3;;;9.8;59
53699;BME280;39591;53.952;27.612;2022-10-16T05:44:13;1018.3;;;9.8;58.8
53699;BME280;39591;53.952;27.612;2022-10-16T05:48:45;1018.3;;;9.9;58.4
53699;BME280;39591;53.952;27.612;2022-10-16T05:53:51;1018.4;;;10.1;58
53699;BME280;39591;53.952;27.612;2022-10-16T05:58:53;1018.5;;;10.3;57.6
53699;BME280;39591;53.952;27.612;2022-10-16T06:04:03;1018.5;;;10.4;57.1
53699;BME280;39591;53.952;27.612;2022-10-16T06:08:59;1018.5;;;10.5;56.5
53699;BME280;39591;53.952;27.612;2022-10-16T06:14:25;1018.5;;;10.7;56.3
53699;BME280;39591;53.952;27.612;2022-10-16T06:19:25;1018.6;;;10.8;55.7
53699;BME280;39591;53.952;27.612;2022-10-16T06:24:01;1018.6;;;10.8;55.5
53699;BME280;39591;53.952;27.612;2022-10-16T06:29:25;1018.7;;;10.9;55.2
53699;BME280;39591;53.952;27.612;2022-10-16T06:34:25;1018.8;;;10.9;54.9
53699;BME280;39591;53.952;27.612;2022-10-16T06:38:40;1018.9;;;11;54.6
53699;BME280;39591;53.952;27.612;2022-10-16T06:43:51;1019;;;10.9;54.4
53699;BME280;39591;53.952;27.612;2022-10-16T06:48:37;1019;;;10.9;54.3
53699;BME280;39591;53.952;27.612;2022-10-16T06:54:21;1019;;;11;54.1
53699;BME280;39591;53.952;27.612;2022-10-16T06:59:13;1019;;;11;53.9
53699;BME280;39591;53.952;27.612;2022-10-16T07:04:13;1018.9;;;11.1;53.8
53699;BME280;39591;53.952;27.612;2022-10-16T07:09:15;1019;;;11.1;53.6
53699;BME280;39591;53.952;27.612;2022-10-16T07:14:12;1018.9;;;11.3;53.4
53699;BME280;39591;53.952;27.612;2022-10-16T07:19:14;1018.9;;;11.5;52.8
53699;BME280;39591;53.952;27.612;2022-10-16T07:24:12;1019;;;11.6;52.4
53699;BME280;39591;53.952;27.612;2022-10-16T07:29:23;1019;;;11.9;52
53699;BME280;39591;53.952;27.612;2022-10-16T07:33:38;1019;;;12.1;51.4
53699;BME280;39591;53.952;27.612;2022-10-16T07:38:51;1019;;;12.2;51.2
53699;BME280;39591;53.952;27.612;2022-10-16T07:43:52;1019;;;12.4;51
53699;BME280;39591;53.952;27.612;2022-10-16T07:49:23;1019;;;12.6;50.5
53699;BME280;39591;53.952;27.612;2022-10-16T07:54:25;1019.1;;;12.7;50.4
53699;BME280;39591;53.952;27.612;2022-10-16T07:59:01;1019.2;;;12.7;50.3
53699;BME280;39591;53.952;27.612;2022-10-16T08:04:25;1019.2;;;12.7;50.2
53699;BME280;39591;53.952;27.612;2022-10-16T08:09:11;1019.2;;;12.9;50.1
53699;BME280;39591;53.952;27.612;2022-10-16T08:13:51;1019.2;;;13.1;49.7
53699;BME280;39591;53.952;27.612;2022-10-16T08:19:02;1019.2;;;13.4;49.1
53699;BME280;39591;53.952;27.612;2022-10-16T08:23:52;1019.2;;;13.7;48.8
53699;BME280;39591;53.952;27.612;2022-10-16T08:28:49;1019.2;;;13.9;48.3
53699;BME280;39591;53.952;27.612;2022-10-16T08:34:11;1019.2;;;14;48.3
53699;BME280;39591;53.952;27.612;2022-10-16T08:38:38;1019.2;;;14.2;48
53699;BME280;39591;53.952;27.612;2022-10-16T08:44:19;1019.2;;;14.3;47.6
53699;BME280;39591;53.952;27.612;2022-10-16T08:48:41;1019.3;;;14.4;47.8
53699;BME280;39591;53.952;27.612;2022-10-16T08:53:39;1019.2;;;14.7;47.2
53699;BME280;39591;53.952;27.612;2022-10-16T08:59:01;1019.2;;;14.8;47
53699;BME280;39591;53.952;27.612;2022-10-16T09:04:22;1019.2;;;15;46.8
53699;BME280;39591;53.952;27.612;2022-10-16T09:09:29;1019.2;;;15.1;46.4
53699;BME280;39591;53.952;27.612;2022-10-16T09:13:40;1019.3;;;15.3;46.4
53699;BME280;39591;53.952;27.612;2022-10-16T09:18:39;1019.3;;;15.5;46.1
53699;BME280;39591;53.952;27.612;2022-10-16T09:23:37;1019.3;;;15.7;45.7
53699;BME280;39591;53.952;27.612;2022-10-16T09:29:12;1019.2;;;15.8;45.6
53699;BME280;39591;53.952;27.612;2022-10-16T09:34:02;1019.2;;;15.8;45.4
53699;BME280;39591;53.952;27.612;2022-10-16T09:39:06;1019.2;;;16;45
53699;BME280;39591;53.952;27.612;2022-10-16T09:44:16;1019.2;;;16;44.9
53699;BME280;39591;53.952;27.612;2022-10-16T09:49:20;1019.2;;;16;45
53699;BME280;39591;53.952;27.612;2022-10-16T09:54:14;1019.2;;;16.1;44.9
53699;BME280;39591;53.952;27.612;2022-10-16T09:59:25;1019.2;;;16.1;44.7
53699;BME280;39591;53.952;27.612;2022-10-16T10:03:38;1019.1;;;16.1;44.5
53699;BME280;39591;53.952;27.612;2022-10-16T10:08:37;1019.1;;;16.1;44.6
53699;BME280;39591;53.952;27.612;2022-10-16T10:14:02;1019.1;;;16;44.6
53699;BME280;39591;53.952;27.612;2022-10-16T10:19:26;1019.2;;;16;44.6
53699;BME280;39591;53.952;27.612;2022-10-16T10:24:27;1019.3;;;15.9;44.8
53699;BME280;39591;53.952;27.612;2022-10-16T10:29:04;1019.2;;;15.9;44.9
53699;BME280;39591;53.952;27.612;2022-10-16T10:34:41;1019.1;;;16;44.8
53699;BME280;39591;53.952;27.612;2022-10-16T10:39:16;1019.1;;;16.1;44.7
53699;BME280;39591;53.952;27.612;2022-10-16T10:43:54;1019.2;;;16.1;44.6
53699;BME280;39591;53.952;27.612;2022-10-16T10:49:06;1019.2;;;16;44.5
53699;BME280;39591;53.952;27.612;2022-10-16T10:54:06;1019.2;;;16.2;44.6
53699;BME280;39591;53.952;27.612;2022-10-16T10:59:02;1019.2;;;16.3;44.3
53699;BME280;39591;53.952;27.612;2022-10-16T11:04:19;1019.1;;;16.4;44.4
53699;BME280;39591;53.952;27.612;2022-10-16T11:08:39;1019.1;;;16.5;44.1
53699;BME280;39591;53.952;27.612;2022-10-16T11:14:25;1019.1;;;16.4;43.5
53699;BME280;39591;53.952;27.612;2022-10-16T11:19:31;1019;;;16.4;43.3
53699;BME280;39591;53.952;27.612;2022-10-16T11:24:04;1019;;;16.5;43.2
53699;BME280;39591;53.952;27.612;2022-10-16T11:29:04;1019;;;16.6;43
53699;BME280;39591;53.952;27.612;2022-10-16T11:34:27;1019;;;16.6;42.6
53699;BME280;39591;53.952;27.612;2022-10-16T11:39:24;1019;;;16.8;42.5
53699;BME280;39591;53.952;27.612;2022-10-16T11:43:52;1019;;;17;42.1
53699;BME280;39591;53.952;27.612;2022-10-16T11:48:53;1018.9;;;17;41.8
53699;BME280;39591;53.952;27.612;2022-10-16T11:53:53;1018.8;;;17.1;41.8
53699;BME280;39591;53.952;27.612;2022-10-16T11:59:15;1018.8;;;17.2;41.6
53699;BME280;39591;53.952;27.612;2022-10-16T12:04:15;1018.8;;;17.2;41.5
53699;BME280;39591;53.952;27.612;2022-10-16T12:09:02;1018.7;;;17.4;41.5
53699;BME280;39591;53.952;27.612;2022-10-16T12:14:19;1018.6;;;17.5;41.1
53699;BME280;39591;53.952;27.612;2022-10-16T12:19:19;1018.7;;;17.4;41.2
53699;BME280;39591;53.952;27.612;2022-10-16T12:23:47;1018.7;;;17.4;41.2
53699;BME280;39591;53.952;27.612;2022-10-16T12:29:14;1018.6;;;17.3;40.9
53699;BME280;39591;53.952;27.612;2022-10-16T12:34:27;1018.7;;;17.1;41.2
53699;BME280;39591;53.952;27.612;2022-10-16T12:38:38;1018.8;;;16.9;41.4
53699;BME280;39591;53.952;27.612;2022-10-16T12:43:52;1018.8;;;16.8;41.5
53699;BME280;39591;53.952;27.612;2022-10-16T12:49:29;1018.8;;;16.8;41.6
53699;BME280;39591;53.952;27.612;2022-10-16T12:54:17;1018.8;;;16.7;41.7
53699;BME280;39591;53.952;27.612;2022-10-16T12:59:22;1018.8;;;16.6;41.9
53699;BME280;39591;53.952;27.612;2022-10-16T13:04:21;1018.9;;;16.5;42
53699;BME280;39591;53.952;27.612;2022-10-16T13:09:20;1018.9;;;16.6;42
53699;BME280;39591;53.952;27.612;2022-10-16T13:14:28;1018.9;;;16.5;41.9
53699;BME280;39591;53.952;27.612;2022-10-16T13:19:00;1018.8;;;16.6;42.1
53699;BME280;39591;53.952;27.612;2022-10-16T13:23:45;1018.8;;;16.6;42.1
53699;BME280;39591;53.952;27.612;2022-10-16T13:29:04;1018.8;;;16.5;42.3
53699;BME280;39591;53.952;27.612;2022-10-16T13:34:14;1018.8;;;16.4;42
53699;BME280;39591;53.952;27.612;2022-10-16T13:39:06;1018.6;;;16.3;41.7
53699;BME280;39591;53.952;27.612;2022-10-16T13:43:48;1018.6;;;16.2;41.5
53699;BME280;39591;53.952;27.612;2022-10-16T13:49:28;1018.6;;;16.1;40.8
53699;BME280;39591;53.952;27.612;2022-10-16T13:54:28;1018.6;;;16;40.5
53699;BME280;39591;53.952;27.612;2022-10-16T13:59:06;1018.8;;;15.8;40.3
53699;BME280;39591;53.952;27.612;2022-10-16T14:04:24;1018.8;;;15.7;40
53699;BME280;39591;53.952;27.612;2022-10-16T14:09:28;1018.8;;;15.6;40.3
53699;BME280;39591;53.952;27.612;2022-10-16T14:14:31;1018.8;;;15.5;40.5
53699;BME280;39591;53.952;27.612;2022-10-16T14:18:55;1018.8;;;15.4;40.3
53699;BME280;39591;53.952;27.612;2022-10-16T14:24:10;1018.8;;;15.3;40.5
53699;BME280;39591;53.952;27.612;2022-10-16T14:29:24;1018.9;;;15.3;40.4
53699;BME280;39591;53.952;27.612;2022-10-16T14:34:29;1019;;;15.2;40.5
53699;BME280;39591;53.952;27.612;2022-10-16T14:39:04;1019;;;15.1;40.5
53699;BME280;39591;53.952;27.612;2022-10-16T14:44:16;1019;;;15;40.5
53699;BME280;39591;53.952;27.612;2022-10-16T14:49:15;1019;;;14.9;40.4
53699;BME280;39591;53.952;27.612;2022-10-16T14:53:38;1019;;;14.8;40.4
53699;BME280;39591;53.952;27.612;2022-10-16T14:59:13;1018.9;;;14.6;40.3
53699;BME280;39591;53.952;27.612;2022-10-16T15:04:28;1019;;;14.5;40.5
53699;BME280;39591;53.952;27.612;2022-10-16T15:08:52;1019;;;14.4;40.8
53699;BME280;39591;53.952;27.612;2022-10-16T15:13:52;1019;;;14.3;40.9
53699;BME280;39591;53.952;27.612;2022-10-16T15:19:28;1019;;;14.2;41.1
53699;BME280;39591;53.952;27.612;2022-10-16T15:24:18;1019;;;14.2;41.3
53699;BME280;39591;53.952;27.612;2022-10-16T15:29:26;1019;;;14;41.6
53699;BME280;39591;53.952;27.612;2022-10-16T15:34:14;1019.1;;;14;41.7
53699;BME280;39591;53.952;27.612;2022-10-16T15:39:16;1019.2;;;13.9;41.9
53699;BME280;39591;53.952;27.612;2022-10-16T15:44:26;1019.2;;;13.9;42.1
53699;BME280;39591;53.952;27.612;2022-10-16T15:49:02;1019.2;;;13.8;42.2
53699;BME280;39591;53.952;27.612;2022-10-16T15:54:02;1019.3;;;13.8;42.5
53699;BME280;39591;53.952;27.612;2022-10-16T15:58:52;1019.3;;;13.7;42.7
53699;BME280;39591;53.952;27.612;2022-10-16T16:03:54;1019.4;;;13.6;42.7
53699;BME280;39591;53.952;27.612;2022-10-16T16:08:48;1019.4;;;13.6;42.9
53699;BME280;39591;53.952;27.612;2022-10-16T16:14:02;1019.5;;;13.6;42.9
53699;BME280;39591;53.952;27.612;2022-10-16T16:19:26;1019.5;;;13.6;43
53699;BME280;39591;53.952;27.612;2022-10-16T16:24:24;1019.5;;;13.7;42.9
53699;BME280;39591;53.952;27.612;2022-10-16T16:29:03;1019.5;;;13.7;42.8
53699;BME280;39591;53.952;27.612;2022-10-16T16:34:26;1019.5;;;13.8;42.8
53699;BME280;39591;53.952;27.612;2022-10-16T16:39:14;1019.5;;;13.8;42.8
53699;BME280;39591;53.952;27.612;2022-10-16T16:44:24;1019.5;;;13.8;42.6
53699;BME280;39591;53.952;27.612;2022-10-16T16:48:48;1019.6;;;13.9;42.6
53699;BME280;39591;53.952;27.612;2022-10-16T16:54:14;1019.6;;;13.9;42.6
53699;BME280;39591;53.952;27.612;2022-10-16T16:58:53;1019.7;;;13.9;42.4
53699;BME280;39591;53.952;27.612;2022-10-16T17:04:12;1019.7;;;14;42.4
53699;BME280;39591;53.952;27.612;2022-10-16T17:09:00;1019.7;;;13.9;42.5
53699;BME280;39591;53.952;27.612;2022-10-16T17:14:16;1019.6;;;13.9;42.5
53699;BME280;39591;53.952;27.612;2022-10-16T17:19:10;1019.6;;;13.9;42.5
53699;BME280;39591;53.952;27.612;2022-10-16T17:24:10;1019.6;;;13.8;42.5
53699;BME280;39591;53.952;27.612;2022-10-16T17:29:14;1019.6;;;13.9;42.5
53699;BME280;39591;53.952;27.612;2022-10-16T17:34:24;1019.6;;;13.8;42.6
53699;BME280;39591;53.952;27.612;2022-10-16T17:38:52;1019.6;;;13.8;42.6
53699;BME280;39591;53.952;27.612;2022-10-16T17:43:38;1019.7;;;13.8;42.5
53699;BME280;39591;53.952;27.612;2022-10-16T17:48:38;1019.7;;;13.8;42.7
53699;BME280;39591;53.952;27.612;2022-10-16T17:54:00;1019.6;;;13.7;42.7
53699;BME280;39591;53.952;27.612;2022-10-16T17:59:24;1019.6;;;13.7;42.8
53699;BME280;39591;53.952;27.612;2022-10-16T18:04:02;1019.6;;;13.6;42.9
53699;BME280;39591;53.952;27.612;2022-10-16T18:09:22;1019.6;;;13.6;43.1
53699;BME280;39591;53.952;27.612;2022-10-16T18:14:12;1019.7;;;13.5;43.1
53699;BME280;39591;53.952;27.612;2022-10-16T18:19:02;1019.7;;;13.5;43.2
53699;BME280;39591;53.952;27.612;2022-10-16T18:23:52;1019.8;;;13.5;43.3
53699;BME280;39591;53.952;27.612;2022-10-16T18:28:52;1019.8;;;13.4;43.3
53699;BME280;39591;53.952;27.612;2022-10-16T18:33:54;1019.7;;;13.4;43.3
53699;BME280;39591;53.952;27.612;2022-10-16T18:38:38;1019.9;;;13.4;43.4
53699;BME280;39591;53.952;27.612;2022-10-16T18:43:52;1019.9;;;13.5;43.3
53699;BME280;39591;53.952;27.612;2022-10-16T18:49:26;1019.8;;;13.5;43.3
53699;BME280;39591;53.952;27.612;2022-10-16T18:54:14;1019.7;;;13.5;43.3
53699;BME280;39591;53.952;27.612;2022-10-16T18:59:03;1019.6;;;13.5;43.4
53699;BME280;39591;53.952;27.612;2022-10-16T19:04:03;1019.6;;;13.5;43.4
53699;BME280;39591;53.952;27.612;2022-10-16T19:09:12;1019.7;;;13.5;43.4
53699;BME280;39591;53.952;27.612;2022-10-16T19:14:24;1019.6;;;13.5;43.5
53699;BME280;39591;53.952;27.612;2022-10-16T19:18:54;1019.5;;;13.5;43.6
53699;BME280;39591;53.952;27.612;2022-10-16T19:23:52;1019.5;;;13.5;43.7
53699;BME280;39591;53.952;27.612;2022-10-16T19:29:02;1019.7;;;13.5;43.7
53699;BME280;39591;53.952;27.612;2022-10-16T19:34:16;1019.7;;;13.5;43.7
53699;BME280;39591;53.952;27.612;2022-10-16T19:39:03;1019.7;;;13.5;43.7
53699;BME280;39591;53.952;27.612;2022-10-16T19:44:22;1019.7;;;13.5;43.8
53699;BME280;39591;53.952;27.612;2022-10-16T19:49:12;1019.7;;;13.5;43.9
53699;BME280;39591;53.952;27.612;2022-10-16T19:54:14;1019.7;;;13.5;43.9
53699;BME280;39591;53.952;27.612;2022-10-16T19:59:00;1019.6;;;13.5;44.1
53699;BME280;39591;53.952;27.612;2022-10-16T20:04:26;1019.6;;;13.5;44.2
53699;BME280;39591;53.952;27.612;2022-10-16T20:08:52;1019.6;;;13.4;44.4
53699;BME280;39591;53.952;27.612;2022-10-16T20:13:38;1019.7;;;13.4;44.5
53699;BME280;39591;53.952;27.612;2022-10-16T20:18:52;1019.8;;;13.4;44.6
53699;BME280;39591;53.952;27.612;2022-10-16T20:24:24;1019.8;;;13.4;44.7
53699;BME280;39591;53.952;27.612;2022-10-16T20:29:24;1019.9;;;13.4;44.8
53699;BME280;39591;53.952;27.612;2022-10-16T20:34:03;1019.8;;;13.4;44.8
53699;BME280;39591;53.952;27.612;2022-10-16T20:39:28;1019.7;;;13.4;46.4
53699;BME280;39591;53.952;27.612;2022-10-16T20:44:14;1019.7;;;13.3;48.6
53699;BME280;39591;53.952;27.612;2022-10-16T20:49:04;1019.6;;;13.2;49.6
53699;BME280;39591;53.952;27.612;2022-10-16T20:54:04;1019.7;;;13.1;49.4
53699;BME280;39591;53.952;27.612;2022-10-16T20:58:52;1019.7;;;13.1;49.2
53699;BME280;39591;53.952;27.612;2022-10-16T21:03:38;1019.7;;;13.1;49
53699;BME280;39591;53.952;27.612;2022-10-16T21:08:38;1019.7;;;13.1;49.1
53699;BME280;39591;53.952;27.612;2022-10-16T21:14:04;1019.8;;;13.1;48.6
53699;BME280;39591;53.952;27.612;2022-10-16T21:18:38;1019.8;;;13.1;48.6
53699;BME280;39591;53.952;27.612;2022-10-16T21:24:26;1019.9;;;13.1;48.7
53699;BME280;39591;53.952;27.612;2022-10-16T21:29:14;1019.9;;;13.1;48.7
53699;BME280;39591;53.952;27.612;2022-10-16T21:34:02;1019.9;;;13.2;48.8
53699;BME280;39591;53.952;27.612;2022-10-16T21:39:26;1020;;;13.2;48.6
53699;BME280;39591;53.952;27.612;2022-10-16T21:44:14;1020;;;13.2;48.7
53699;BME280;39591;53.952;27.612;2022-10-16T21:49:28;1019.8;;;13.2;48.7
53699;BME280;39591;53.952;27.612;2022-10-16T21:53:52;1019.7;;;13.2;48.8
53699;BME280;39591;53.952;27.612;2022-10-16T21:58:50;1019.7;;;13.2;48.8
53699;BME280;39591;53.952;27.612;2022-10-16T22:04:28;1019.6;;;13.1;49
53699;BME280;39591;53.952;27.612;2022-10-16T22:09:14;1019.5;;;13.1;49.2
53699;BME280;39591;53.952;27.612;2022-10-16T22:14:00;1019.4;;;13;49.3
53699;BME280;39591;53.952;27.612;2022-10-16T22:19:06;1019.4;;;13;49.4
53699;BME280;39591;53.952;27.612;2022-10-16T22:23:40;1019.4;;;12.9;49.9
53699;BME280;39591;53.952;27.612;2022-10-16T22:28:53;1019.4;;;12.8;50.1
53699;BME280;39591;53.952;27.612;2022-10-16T22:34:14;1019.5;;;12.8;50.1
53699;BME280;39591;53.952;27.612;2022-10-16T22:39:22;1019.6;;;12.9;50.1
53699;BME280;39591;53.952;27.612;2022-10-16T22:43:52;1019.7;;;12.9;50.3
53699;BME280;39591;53.952;27.612;2022-10-16T22:48:52;1019.6;;;13;50.4
53699;BME280;39591;53.952;27.612;2022-10-16T22:54:26;1019.5;;;13;50.3
53699;BME280;39591;53.952;27.612;2022-10-16T22:59:14;1019.5;;;13.1;50.4
53699;BME280;39591;53.952;27.612;2022-10-16T23:04:22;1019.5;;;13.1;50.4
53699;BME280;39591;53.952;27.612;2022-10-16T23:09:02;1019.6;;;13.1;50.5
53699;BME280;39591;53.952;27.612;2022-10-16T23:14:17;1019.6;;;13.2;50.7
53699;BME280;39591;53.952;27.612;2022-10-16T23:19:24;1019.6;;;13.2;51
53699;BME280;39591;53.952;27.612;2022-10-16T23:23:38;1019.7;;;13.2;51.4
53699;BME280;39591;53.952;27.612;2022-10-16T23:28:44;1019.6;;;13.2;52.3
53699;BME280;39591;53.952;27.612;2022-10-16T23:33:38;1019.6;;;13.1;53.2
53699;BME280;39591;53.952;27.612;2022-10-16T23:39:02;1019.7;;;13.1;54.5
53699;BME280;39591;53.952;27.612;2022-10-16T23:44:00;1019.8;;;13;55.2
53699;BME280;39591;53.952;27.612;2022-10-16T23:49:02;1019.9;;;13;55.7
53699;BME280;39591;53.952;27.612;2022-10-16T23:54:20;1019.8;;;12.9;56.7
53699;BME280;39591;53.952;27.612;2022-10-16T23:59:20;1019.8;;;12.8;57.4
